sensor_id;sensor_type;location;lat;lon;timestamp;pressure;altitude;pressure_sealevel;temperature;humidity
59971;BME280;45825;45.434;9.116;2023-02-19T00:01:18;101217.63;;;10.34;80.25
59971;BME280;45825;45.434;9.116;2023-02-19T00:03:48;101224.34;;;10.43;80.56
59971;BME280;45825;45.434;9.116;2023-02-19T00:06:14;101219.56;;;10.31;81.30
59971;BME280;45825;45.434;9.116;2023-02-19T00:08:39;101214.94;;;10.36;80.56
59971;BME280;45825;45.434;9.116;2023-02-19T00:11:10;101215.69;;;10.41;80.15
59971;BME280;45825;45.434;9.116;2023-02-19T00:13:40;101216.66;;;10.37;80.83
59971;BME280;45825;45.434;9.116;2023-02-19T00:16:12;101208.63;;;10.40;80.93
59971;BME280;45825;45.434;9.116;2023-02-19T00:18:38;101207.09;;;10.34;80.70
59971;BME280;45825;45.434;9.116;2023-02-19T00:21:04;101208.72;;;10.39;80.91
59971;BME280;45825;45.434;9.116;2023-02-19T00:23:30;101218.38;;;10.38;80.92
59971;BME280;45825;45.434;9.116;2023-02-19T00:25:55;101201.84;;;10.34;80.98
59971;BME280;45825;45.434;9.116;2023-02-19T00:28:21;101208.72;;;10.39;80.66
59971;BME280;45825;45.434;9.116;2023-02-19T00:30:46;101211.34;;;10.39;80.36
59971;BME280;45825;45.434;9.116;2023-02-19T00:33:12;101212.31;;;10.36;80.10
59971;BME280;45825;45.434;9.116;2023-02-19T00:35:37;101205.22;;;10.38;80.20
59971;BME280;45825;45.434;9.116;2023-02-19T00:38:03;101206.09;;;10.39;80.53
59971;BME280;45825;45.434;9.116;2023-02-19T00:40:29;101199.28;;;10.33;80.24
59971;BME280;45825;45.434;9.116;2023-02-19T00:42:54;101197.44;;;10.35;80.23
59971;BME280;45825;45.434;9.116;2023-02-19T00:45:20;101198.38;;;10.34;79.85
59971;BME280;45825;45.434;9.116;2023-02-19T00:47:45;101202.84;;;10.32;80.61
59971;BME280;45825;45.434;9.116;2023-02-19T00:50:10;101192.81;;;10.19;80.62
59971;BME280;45825;45.434;9.116;2023-02-19T00:52:36;101201.41;;;10.23;81.45
59971;BME280;45825;45.434;9.116;2023-02-19T00:55:01;101199.66;;;10.24;80.39
59971;BME280;45825;45.434;9.116;2023-02-19T00:57:26;101194.78;;;10.13;81.14
59971;BME280;45825;45.434;9.116;2023-02-19T00:59:52;101197.56;;;10.10;81.24
59971;BME280;45825;45.434;9.116;2023-02-19T01:02:17;101189.66;;;10.10;81.29
59971;BME280;45825;45.434;9.116;2023-02-19T01:04:42;101193.69;;;10.18;81.57
59971;BME280;45825;45.434;9.116;2023-02-19T01:07:08;101189.25;;;10.20;81.32
59971;BME280;45825;45.434;9.116;2023-02-19T01:09:33;101176.47;;;10.11;81.25
59971;BME280;45825;45.434;9.116;2023-02-19T01:11:58;101185.16;;;10.13;81.62
59971;BME280;45825;45.434;9.116;2023-02-19T01:14:24;101182.81;;;10.05;81.34
59971;BME280;45825;45.434;9.116;2023-02-19T01:16:49;101183.63;;;10.07;81.41
59971;BME280;45825;45.434;9.116;2023-02-19T01:19:14;101181.09;;;10.04;81.73
59971;BME280;45825;45.434;9.116;2023-02-19T01:21:40;101159.63;;;9.93;81.88
59971;BME280;45825;45.434;9.116;2023-02-19T01:24:05;101178.69;;;9.98;82.27
59971;BME280;45825;45.434;9.116;2023-02-19T01:26:32;101178.25;;;9.87;83.20
59971;BME280;45825;45.434;9.116;2023-02-19T01:28:59;101169.56;;;9.85;83.50
59971;BME280;45825;45.434;9.116;2023-02-19T01:31:24;101172.25;;;9.83;82.99
59971;BME280;45825;45.434;9.116;2023-02-19T01:33:52;101167.75;;;9.87;82.95
59971;BME280;45825;45.434;9.116;2023-02-19T01:36:18;101161.81;;;9.82;83.30
59971;BME280;45825;45.434;9.116;2023-02-19T01:38:43;101165.06;;;9.88;83.24
59971;BME280;45825;45.434;9.116;2023-02-19T01:41:14;101163.28;;;9.89;82.81
59971;BME280;45825;45.434;9.116;2023-02-19T01:43:59;101152.38;;;10.00;82.64
59971;BME280;45825;45.434;9.116;2023-02-19T01:46:26;101163.97;;;9.94;83.38
59971;BME280;45825;45.434;9.116;2023-02-19T01:48:52;101155.91;;;9.99;82.86
59971;BME280;45825;45.434;9.116;2023-02-19T01:51:19;101158.22;;;10.06;82.98
59971;BME280;45825;45.434;9.116;2023-02-19T01:53:50;101156.56;;;10.04;82.48
59971;BME280;45825;45.434;9.116;2023-02-19T01:56:17;101151.78;;;9.91;83.27
59971;BME280;45825;45.434;9.116;2023-02-19T01:58:44;101152.66;;;9.92;83.32
59971;BME280;45825;45.434;9.116;2023-02-19T02:01:10;101142.75;;;9.99;82.80
59971;BME280;45825;45.434;9.116;2023-02-19T02:03:37;101148.94;;;9.98;82.50
59971;BME280;45825;45.434;9.116;2023-02-19T02:06:24;101146.75;;;10.09;82.35
59971;BME280;45825;45.434;9.116;2023-02-19T02:08:51;101134.78;;;10.00;82.67
59971;BME280;45825;45.434;9.116;2023-02-19T02:11:37;101133.03;;;10.01;82.29
59971;BME280;45825;45.434;9.116;2023-02-19T02:14:04;101130.16;;;10.07;81.89
59971;BME280;45825;45.434;9.116;2023-02-19T02:21:50;101131.31;;;10.00;82.83
59971;BME280;45825;45.434;9.116;2023-02-19T02:27:39;101130.63;;;9.95;82.62
59971;BME280;45825;45.434;9.116;2023-02-19T02:33:03;101128.94;;;9.93;82.29
59971;BME280;45825;45.434;9.116;2023-02-19T02:35:39;101122.69;;;9.96;82.64
59971;BME280;45825;45.434;9.116;2023-02-19T02:38:07;101117.06;;;9.83;82.28
59971;BME280;45825;45.434;9.116;2023-02-19T02:40:36;101129.06;;;9.90;83.06
59971;BME280;45825;45.434;9.116;2023-02-19T02:43:04;101128.69;;;10.00;82.45
59971;BME280;45825;45.434;9.116;2023-02-19T02:45:32;101116.66;;;9.94;82.17
59971;BME280;45825;45.434;9.116;2023-02-19T02:50:56;101115.97;;;9.89;82.89
59971;BME280;45825;45.434;9.116;2023-02-19T02:53:48;101109.06;;;9.86;82.23
59971;BME280;45825;45.434;9.116;2023-02-19T02:56:34;101110.03;;;9.84;82.46
59971;BME280;45825;45.434;9.116;2023-02-19T02:59:03;101103.13;;;9.81;82.84
59971;BME280;45825;45.434;9.116;2023-02-19T03:01:38;101096.16;;;9.80;82.51
59971;BME280;45825;45.434;9.116;2023-02-19T03:07:24;101090.78;;;9.83;81.86
59971;BME280;45825;45.434;9.116;2023-02-19T03:09:51;101092.31;;;9.89;82.32
59971;BME280;45825;45.434;9.116;2023-02-19T03:12:17;101086.03;;;9.93;81.68
59971;BME280;45825;45.434;9.116;2023-02-19T03:15:06;101084.97;;;9.97;81.79
59971;BME280;45825;45.434;9.116;2023-02-19T03:17:56;101089.75;;;9.87;81.86
59971;BME280;45825;45.434;9.116;2023-02-19T03:20:47;101090.94;;;9.78;81.39
59971;BME280;45825;45.434;9.116;2023-02-19T03:23:15;101094.13;;;9.87;81.58
59971;BME280;45825;45.434;9.116;2023-02-19T03:25:42;101091.69;;;9.82;81.40
59971;BME280;45825;45.434;9.116;2023-02-19T03:28:29;101096.72;;;9.88;81.67
59971;BME280;45825;45.434;9.116;2023-02-19T03:31:18;101089.63;;;9.90;80.80
59971;BME280;45825;45.434;9.116;2023-02-19T03:33:49;101100.53;;;9.79;82.32
59971;BME280;45825;45.434;9.116;2023-02-19T03:36:17;101105.78;;;9.79;82.18
59971;BME280;45825;45.434;9.116;2023-02-19T03:39:03;101105.53;;;9.87;81.78
59971;BME280;45825;45.434;9.116;2023-02-19T03:41:37;101098.97;;;9.75;81.83
59971;BME280;45825;45.434;9.116;2023-02-19T03:52:17;101085.50;;;9.61;81.74
59971;BME280;45825;45.434;9.116;2023-02-19T03:54:55;101089.88;;;9.60;82.56
59971;BME280;45825;45.434;9.116;2023-02-19T03:57:30;101099.44;;;9.63;81.96
59971;BME280;45825;45.434;9.116;2023-02-19T04:00:07;101096.00;;;9.61;81.96
59971;BME280;45825;45.434;9.116;2023-02-19T04:02:40;101103.72;;;9.66;81.64
59971;BME280;45825;45.434;9.116;2023-02-19T04:05:23;101109.59;;;9.72;80.62
59971;BME280;45825;45.434;9.116;2023-02-19T04:07:51;101098.28;;;9.70;80.81
59971;BME280;45825;45.434;9.116;2023-02-19T04:10:18;101096.50;;;9.71;80.27
59971;BME280;45825;45.434;9.116;2023-02-19T04:12:53;101095.28;;;9.57;81.54
59971;BME280;45825;45.434;9.116;2023-02-19T04:15:24;101110.41;;;9.50;81.73
59971;BME280;45825;45.434;9.116;2023-02-19T04:17:58;101098.88;;;9.31;83.22
59971;BME280;45825;45.434;9.116;2023-02-19T04:20:26;101114.22;;;9.42;82.36
59971;BME280;45825;45.434;9.116;2023-02-19T04:22:53;101111.84;;;9.35;83.24
59971;BME280;45825;45.434;9.116;2023-02-19T04:25:20;101112.63;;;9.38;83.25
59971;BME280;45825;45.434;9.116;2023-02-19T04:27:46;101114.00;;;9.48;83.14
59971;BME280;45825;45.434;9.116;2023-02-19T04:30:13;101110.91;;;9.36;82.68
59971;BME280;45825;45.434;9.116;2023-02-19T04:32:38;101107.25;;;9.41;82.77
59971;BME280;45825;45.434;9.116;2023-02-19T04:35:04;101104.63;;;9.41;82.48
59971;BME280;45825;45.434;9.116;2023-02-19T04:37:29;101098.53;;;9.40;82.29
59971;BME280;45825;45.434;9.116;2023-02-19T04:39:55;101100.41;;;9.36;82.46
59971;BME280;45825;45.434;9.116;2023-02-19T04:42:20;101095.97;;;9.39;83.21
59971;BME280;45825;45.434;9.116;2023-02-19T04:44:45;101097.44;;;9.46;81.95
59971;BME280;45825;45.434;9.116;2023-02-19T04:47:10;101094.19;;;9.39;81.43
59971;BME280;45825;45.434;9.116;2023-02-19T04:49:36;101077.84;;;9.31;82.04
59971;BME280;45825;45.434;9.116;2023-02-19T04:52:01;101096.88;;;9.38;81.85
59971;BME280;45825;45.434;9.116;2023-02-19T04:54:26;101095.34;;;9.32;82.17
59971;BME280;45825;45.434;9.116;2023-02-19T04:56:52;101093.63;;;9.31;81.45
59971;BME280;45825;45.434;9.116;2023-02-19T04:59:17;101093.63;;;9.31;81.56
59971;BME280;45825;45.434;9.116;2023-02-19T05:01:42;101087.28;;;9.36;80.65
59971;BME280;45825;45.434;9.116;2023-02-19T05:04:08;101082.78;;;9.40;80.47
59971;BME280;45825;45.434;9.116;2023-02-19T05:06:33;101080.78;;;9.23;80.82
59971;BME280;45825;45.434;9.116;2023-02-19T05:08:58;101093.78;;;9.26;80.98
59971;BME280;45825;45.434;9.116;2023-02-19T05:11:24;101086.41;;;9.12;81.59
59971;BME280;45825;45.434;9.116;2023-02-19T05:13:49;101091.50;;;9.17;81.32
59971;BME280;45825;45.434;9.116;2023-02-19T05:16:15;101080.34;;;8.86;82.89
59971;BME280;45825;45.434;9.116;2023-02-19T05:18:42;101093.22;;;8.92;82.71
59971;BME280;45825;45.434;9.116;2023-02-19T05:21:09;101097.00;;;8.85;83.13
59971;BME280;45825;45.434;9.116;2023-02-19T05:23:34;101100.28;;;8.90;81.67
59971;BME280;45825;45.434;9.116;2023-02-19T05:26:14;101091.78;;;8.84;82.26
59971;BME280;45825;45.434;9.116;2023-02-19T05:28:42;101090.13;;;8.81;81.67
59971;BME280;45825;45.434;9.116;2023-02-19T05:31:08;101088.06;;;8.64;82.90
59971;BME280;45825;45.434;9.116;2023-02-19T05:33:35;101090.97;;;8.56;83.29
59971;BME280;45825;45.434;9.116;2023-02-19T05:36:07;101096.59;;;8.44;84.54
59971;BME280;45825;45.434;9.116;2023-02-19T05:38:33;101091.88;;;8.55;84.47
59971;BME280;45825;45.434;9.116;2023-02-19T05:41:10;101106.03;;;8.51;84.50
59971;BME280;45825;45.434;9.116;2023-02-19T05:43:37;101096.34;;;8.53;84.01
59971;BME280;45825;45.434;9.116;2023-02-19T05:46:03;101095.25;;;8.59;82.78
59971;BME280;45825;45.434;9.116;2023-02-19T05:48:28;101096.44;;;8.48;83.24
59971;BME280;45825;45.434;9.116;2023-02-19T05:50:53;101094.34;;;8.60;82.70
59971;BME280;45825;45.434;9.116;2023-02-19T05:53:19;101099.59;;;8.60;82.99
59971;BME280;45825;45.434;9.116;2023-02-19T05:55:44;101100.91;;;8.46;82.70
59971;BME280;45825;45.434;9.116;2023-02-19T05:58:09;101095.88;;;8.38;83.42
59971;BME280;45825;45.434;9.116;2023-02-19T06:00:36;101099.97;;;8.47;83.31
59971;BME280;45825;45.434;9.116;2023-02-19T06:03:01;101091.00;;;8.28;83.29
59971;BME280;45825;45.434;9.116;2023-02-19T06:05:26;101089.69;;;8.14;84.54
59971;BME280;45825;45.434;9.116;2023-02-19T06:07:52;101085.25;;;8.16;84.52
59971;BME280;45825;45.434;9.116;2023-02-19T06:10:17;101081.91;;;8.11;85.21
59971;BME280;45825;45.434;9.116;2023-02-19T06:12:43;101073.88;;;8.16;85.35
59971;BME280;45825;45.434;9.116;2023-02-19T06:15:08;101076.06;;;8.30;84.67
59971;BME280;45825;45.434;9.116;2023-02-19T06:17:34;101071.88;;;8.24;84.07
59971;BME280;45825;45.434;9.116;2023-02-19T06:20:00;101078.72;;;8.28;84.21
59971;BME280;45825;45.434;9.116;2023-02-19T06:22:26;101085.31;;;8.42;83.70
59971;BME280;45825;45.434;9.116;2023-02-19T06:24:51;101087.66;;;8.22;84.70
59971;BME280;45825;45.434;9.116;2023-02-19T06:27:17;101083.03;;;8.31;83.98
59971;BME280;45825;45.434;9.116;2023-02-19T06:29:42;101075.72;;;8.41;83.39
59971;BME280;45825;45.434;9.116;2023-02-19T06:32:08;101071.31;;;8.41;82.77
59971;BME280;45825;45.434;9.116;2023-02-19T06:34:33;101084.59;;;8.36;83.79
59971;BME280;45825;45.434;9.116;2023-02-19T06:36:59;101091.81;;;8.30;83.91
59971;BME280;45825;45.434;9.116;2023-02-19T06:39:25;101089.22;;;8.28;84.36
59971;BME280;45825;45.434;9.116;2023-02-19T06:41:54;101096.78;;;8.37;84.49
59971;BME280;45825;45.434;9.116;2023-02-19T06:44:20;101090.47;;;8.43;83.19
59971;BME280;45825;45.434;9.116;2023-02-19T06:46:45;101091.41;;;8.42;83.08
59971;BME280;45825;45.434;9.116;2023-02-19T06:49:11;101101.16;;;8.65;82.93
59971;BME280;45825;45.434;9.116;2023-02-19T06:51:36;101093.63;;;8.82;81.60
59971;BME280;45825;45.434;9.116;2023-02-19T06:54:01;101093.72;;;8.78;81.09
59971;BME280;45825;45.434;9.116;2023-02-19T06:56:30;101087.25;;;8.63;81.97
59971;BME280;45825;45.434;9.116;2023-02-19T06:58:58;101088.69;;;8.72;82.38
59971;BME280;45825;45.434;9.116;2023-02-19T07:01:25;101086.66;;;8.80;81.96
59971;BME280;45825;45.434;9.116;2023-02-19T07:03:51;101082.88;;;8.88;81.92
59971;BME280;45825;45.434;9.116;2023-02-19T07:06:20;101084.22;;;9.00;81.07
59971;BME280;45825;45.434;9.116;2023-02-19T07:08:46;101089.63;;;8.95;80.83
59971;BME280;45825;45.434;9.116;2023-02-19T07:11:11;101093.34;;;8.89;81.11
59971;BME280;45825;45.434;9.116;2023-02-19T07:13:37;101084.72;;;8.86;81.52
59971;BME280;45825;45.434;9.116;2023-02-19T07:16:07;101089.03;;;8.87;81.17
59971;BME280;45825;45.434;9.116;2023-02-19T07:18:33;101086.72;;;9.03;81.13
59971;BME280;45825;45.434;9.116;2023-02-19T07:21:17;101077.31;;;9.21;79.64
59971;BME280;45825;45.434;9.116;2023-02-19T07:23:43;101073.81;;;9.22;79.76
59971;BME280;45825;45.434;9.116;2023-02-19T07:26:15;101080.31;;;9.35;78.61
59971;BME280;45825;45.434;9.116;2023-02-19T07:28:45;101081.44;;;9.28;79.13
59971;BME280;45825;45.434;9.116;2023-02-19T07:31:11;101081.63;;;9.23;79.34
59971;BME280;45825;45.434;9.116;2023-02-19T07:33:37;101084.94;;;9.29;79.03
59971;BME280;45825;45.434;9.116;2023-02-19T07:36:02;101088.31;;;9.32;78.81
59971;BME280;45825;45.434;9.116;2023-02-19T07:38:29;101080.81;;;9.21;79.91
59971;BME280;45825;45.434;9.116;2023-02-19T07:40:59;101094.38;;;9.34;79.57
59971;BME280;45825;45.434;9.116;2023-02-19T07:43:26;101091.56;;;9.39;79.15
59971;BME280;45825;45.434;9.116;2023-02-19T07:45:53;101079.09;;;9.44;78.44
59971;BME280;45825;45.434;9.116;2023-02-19T07:48:18;101091.22;;;9.48;78.72
59971;BME280;45825;45.434;9.116;2023-02-19T07:50:54;101079.72;;;9.51;78.26
59971;BME280;45825;45.434;9.116;2023-02-19T07:53:21;101077.53;;;9.62;78.14
59971;BME280;45825;45.434;9.116;2023-02-19T07:55:47;101081.25;;;9.57;78.87
59971;BME280;45825;45.434;9.116;2023-02-19T07:58:12;101096.09;;;9.58;78.94
59971;BME280;45825;45.434;9.116;2023-02-19T08:00:38;101084.41;;;9.67;77.85
59971;BME280;45825;45.434;9.116;2023-02-19T08:03:04;101083.19;;;9.75;77.53
59971;BME280;45825;45.434;9.116;2023-02-19T08:05:31;101080.34;;;9.82;77.05
59971;BME280;45825;45.434;9.116;2023-02-19T08:07:58;101083.13;;;9.77;77.43
59971;BME280;45825;45.434;9.116;2023-02-19T08:10:24;101096.75;;;9.64;77.98
59971;BME280;45825;45.434;9.116;2023-02-19T08:13:13;101106.84;;;9.75;78.11
59971;BME280;45825;45.434;9.116;2023-02-19T08:15:51;101109.13;;;9.85;77.88
59971;BME280;45825;45.434;9.116;2023-02-19T08:18:19;101108.75;;;9.94;77.38
59971;BME280;45825;45.434;9.116;2023-02-19T08:20:45;101101.41;;;10.02;77.51
59971;BME280;45825;45.434;9.116;2023-02-19T08:23:11;101102.66;;;10.16;76.65
59971;BME280;45825;45.434;9.116;2023-02-19T08:25:37;101101.53;;;10.22;75.35
59971;BME280;45825;45.434;9.116;2023-02-19T08:28:03;101094.56;;;10.20;75.58
59971;BME280;45825;45.434;9.116;2023-02-19T08:30:30;101098.03;;;10.21;75.94
59971;BME280;45825;45.434;9.116;2023-02-19T08:33:00;101099.75;;;10.22;75.38
59971;BME280;45825;45.434;9.116;2023-02-19T08:35:26;101097.44;;;10.14;75.80
59971;BME280;45825;45.434;9.116;2023-02-19T08:37:56;101087.72;;;10.16;75.99
59971;BME280;45825;45.434;9.116;2023-02-19T08:40:22;101079.81;;;10.16;76.55
59971;BME280;45825;45.434;9.116;2023-02-19T08:42:48;101080.38;;;10.25;76.28
59971;BME280;45825;45.434;9.116;2023-02-19T08:45:13;101078.59;;;10.25;75.51
59971;BME280;45825;45.434;9.116;2023-02-19T08:47:39;101081.16;;;10.27;76.18
59971;BME280;45825;45.434;9.116;2023-02-19T08:50:06;101082.75;;;10.31;76.85
59971;BME280;45825;45.434;9.116;2023-02-19T08:52:32;101098.13;;;10.42;76.21
59971;BME280;45825;45.434;9.116;2023-02-19T08:54:58;101096.63;;;10.57;77.46
59971;BME280;45825;45.434;9.116;2023-02-19T08:57:23;101093.31;;;10.72;76.04
59971;BME280;45825;45.434;9.116;2023-02-19T08:59:49;101095.91;;;10.74;75.20
59971;BME280;45825;45.434;9.116;2023-02-19T09:02:14;101093.00;;;10.80;75.04
59971;BME280;45825;45.434;9.116;2023-02-19T09:04:40;101077.22;;;10.80;76.63
59971;BME280;45825;45.434;9.116;2023-02-19T09:07:06;101086.09;;;10.78;76.03
59971;BME280;45825;45.434;9.116;2023-02-19T09:09:35;101082.88;;;10.71;76.49
59971;BME280;45825;45.434;9.116;2023-02-19T09:12:03;101073.63;;;10.62;76.62
59971;BME280;45825;45.434;9.116;2023-02-19T09:14:31;101083.59;;;10.54;76.61
59971;BME280;45825;45.434;9.116;2023-02-19T09:16:56;101090.38;;;10.37;78.17
59971;BME280;45825;45.434;9.116;2023-02-19T09:19:22;101093.16;;;10.34;78.16
59971;BME280;45825;45.434;9.116;2023-02-19T09:21:47;101083.22;;;9.98;79.60
59971;BME280;45825;45.434;9.116;2023-02-19T09:24:12;101089.25;;;10.44;78.80
59971;BME280;45825;45.434;9.116;2023-02-19T09:26:38;101081.56;;;10.60;78.13
59971;BME280;45825;45.434;9.116;2023-02-19T09:29:03;101084.72;;;10.69;77.49
59971;BME280;45825;45.434;9.116;2023-02-19T09:31:28;101082.00;;;10.70;77.60
59971;BME280;45825;45.434;9.116;2023-02-19T09:33:54;101082.94;;;10.69;78.21
59971;BME280;45825;45.434;9.116;2023-02-19T09:36:19;101103.53;;;10.80;79.04
59971;BME280;45825;45.434;9.116;2023-02-19T09:38:44;101113.47;;;10.94;79.13
59971;BME280;45825;45.434;9.116;2023-02-19T09:41:17;101109.19;;;11.12;78.42
59971;BME280;45825;45.434;9.116;2023-02-19T09:43:46;101086.34;;;11.32;76.86
59971;BME280;45825;45.434;9.116;2023-02-19T09:46:23;101094.19;;;11.34;75.99
59971;BME280;45825;45.434;9.116;2023-02-19T09:48:51;101090.06;;;11.47;77.09
59971;BME280;45825;45.434;9.116;2023-02-19T09:51:17;101091.91;;;11.64;76.10
59971;BME280;45825;45.434;9.116;2023-02-19T09:53:45;101077.28;;;11.76;74.73
59971;BME280;45825;45.434;9.116;2023-02-19T09:56:13;101072.31;;;11.70;74.47
59971;BME280;45825;45.434;9.116;2023-02-19T09:58:46;101064.63;;;11.65;74.93
59971;BME280;45825;45.434;9.116;2023-02-19T10:01:12;101072.41;;;11.68;75.71
59971;BME280;45825;45.434;9.116;2023-02-19T10:03:39;101070.66;;;11.86;76.27
59971;BME280;45825;45.434;9.116;2023-02-19T10:06:13;101059.88;;;12.10;74.52
59971;BME280;45825;45.434;9.116;2023-02-19T10:08:44;101061.53;;;12.31;74.62
59971;BME280;45825;45.434;9.116;2023-02-19T10:11:11;101064.94;;;12.50;73.39
59971;BME280;45825;45.434;9.116;2023-02-19T10:13:50;101059.56;;;12.69;73.31
59971;BME280;45825;45.434;9.116;2023-02-19T10:16:24;101057.28;;;12.79;72.06
59971;BME280;45825;45.434;9.116;2023-02-19T10:18:51;101053.09;;;13.09;71.42
59971;BME280;45825;45.434;9.116;2023-02-19T10:21:25;101061.94;;;13.25;72.58
59971;BME280;45825;45.434;9.116;2023-02-19T10:23:58;101051.13;;;13.30;72.12
59971;BME280;45825;45.434;9.116;2023-02-19T10:26:24;101045.97;;;13.43;73.89
59971;BME280;45825;45.434;9.116;2023-02-19T10:28:50;101033.59;;;13.77;70.07
59971;BME280;45825;45.434;9.116;2023-02-19T10:31:18;101050.88;;;13.83;70.50
59971;BME280;45825;45.434;9.116;2023-02-19T10:33:54;101039.69;;;14.24;70.16
59971;BME280;45825;45.434;9.116;2023-02-19T10:36:35;101043.34;;;14.52;66.75
59971;BME280;45825;45.434;9.116;2023-02-19T10:39:07;101034.94;;;14.60;69.22
59971;BME280;45825;45.434;9.116;2023-02-19T10:41:42;101034.53;;;14.83;67.35
59971;BME280;45825;45.434;9.116;2023-02-19T10:44:16;101037.53;;;15.20;65.60
59971;BME280;45825;45.434;9.116;2023-02-19T10:46:45;101040.94;;;15.36;63.95
59971;BME280;45825;45.434;9.116;2023-02-19T10:51:45;101027.91;;;15.88;61.49
59971;BME280;45825;45.434;9.116;2023-02-19T10:54:18;101030.47;;;16.30;62.52
59971;BME280;45825;45.434;9.116;2023-02-19T10:56:44;101028.81;;;16.68;61.24
59971;BME280;45825;45.434;9.116;2023-02-19T11:02:02;101022.16;;;17.87;56.55
59971;BME280;45825;45.434;9.116;2023-02-19T11:04:32;101015.63;;;18.16;54.99
59971;BME280;45825;45.434;9.116;2023-02-19T11:07:10;101018.31;;;18.27;54.05
59971;BME280;45825;45.434;9.116;2023-02-19T11:09:39;101006.53;;;18.54;53.62
59971;BME280;45825;45.434;9.116;2023-02-19T11:12:06;101000.59;;;18.62;51.11
59971;BME280;45825;45.434;9.116;2023-02-19T11:14:33;101006.28;;;18.69;52.45
59971;BME280;45825;45.434;9.116;2023-02-19T11:16:59;100994.19;;;18.65;50.81
59971;BME280;45825;45.434;9.116;2023-02-19T11:19:29;100993.91;;;18.45;51.34
59971;BME280;45825;45.434;9.116;2023-02-19T11:21:57;100979.97;;;18.98;51.76
59971;BME280;45825;45.434;9.116;2023-02-19T11:24:37;100973.47;;;18.91;50.28
59971;BME280;45825;45.434;9.116;2023-02-19T11:27:06;100967.72;;;19.30;50.21
59971;BME280;45825;45.434;9.116;2023-02-19T11:29:38;100968.53;;;19.75;48.74
59971;BME280;45825;45.434;9.116;2023-02-19T11:34:45;100957.47;;;19.79;48.08
59971;BME280;45825;45.434;9.116;2023-02-19T11:37:16;100957.97;;;20.06;47.54
59971;BME280;45825;45.434;9.116;2023-02-19T11:39:44;100961.91;;;20.85;46.28
59971;BME280;45825;45.434;9.116;2023-02-19T11:47:49;100942.41;;;22.13;42.65
59971;BME280;45825;45.434;9.116;2023-02-19T11:50:26;100941.19;;;21.48;43.56
59971;BME280;45825;45.434;9.116;2023-02-19T11:53:17;100933.28;;;22.05;42.20
59971;BME280;45825;45.434;9.116;2023-02-19T11:56:08;100925.53;;;23.06;41.13
59971;BME280;45825;45.434;9.116;2023-02-19T12:01:32;100913.78;;;24.24;38.17
59971;BME280;45825;45.434;9.116;2023-02-19T12:06:58;100919.03;;;24.34;37.25
59971;BME280;45825;45.434;9.116;2023-02-19T12:12:47;100901.34;;;25.18;36.09
59971;BME280;45825;45.434;9.116;2023-02-19T12:15:33;100900.47;;;25.01;35.45
59971;BME280;45825;45.434;9.116;2023-02-19T12:21:09;100883.81;;;24.46;36.93
59971;BME280;45825;45.434;9.116;2023-02-19T12:26:27;100891.25;;;25.11;35.28
59971;BME280;45825;45.434;9.116;2023-02-19T12:43:21;100841.66;;;27.15;31.49
59971;BME280;45825;45.434;9.116;2023-02-19T12:45:54;100832.97;;;26.50;32.54
59971;BME280;45825;45.434;9.116;2023-02-19T12:50:57;100829.03;;;27.16;31.70
59971;BME280;45825;45.434;9.116;2023-02-19T12:55:59;100814.38;;;28.39;29.93
59971;BME280;45825;45.434;9.116;2023-02-19T12:58:31;100828.28;;;28.88;29.28
59971;BME280;45825;45.434;9.116;2023-02-19T13:00:59;100817.38;;;28.44;29.99
59971;BME280;45825;45.434;9.116;2023-02-19T13:03:32;100805.53;;;29.96;28.01
59971;BME280;45825;45.434;9.116;2023-02-19T13:08:38;100814.84;;;28.42;29.76
59971;BME280;45825;45.434;9.116;2023-02-19T13:13:34;100799.47;;;29.52;28.68
59971;BME280;45825;45.434;9.116;2023-02-19T13:16:06;100797.28;;;29.12;29.05
59971;BME280;45825;45.434;9.116;2023-02-19T13:18:46;100793.78;;;30.10;27.91
59971;BME280;45825;45.434;9.116;2023-02-19T13:21:13;100788.94;;;29.13;28.77
59971;BME280;45825;45.434;9.116;2023-02-19T13:24:05;100789.25;;;29.54;28.46
59971;BME280;45825;45.434;9.116;2023-02-19T13:32:24;100775.38;;;27.96;30.01
59971;BME280;45825;45.434;9.116;2023-02-19T13:37:33;100765.56;;;28.25;30.13
59971;BME280;45825;45.434;9.116;2023-02-19T13:40:03;100761.47;;;28.51;29.64
59971;BME280;45825;45.434;9.116;2023-02-19T13:42:35;100755.06;;;29.24;29.10
59971;BME280;45825;45.434;9.116;2023-02-19T13:45:04;100747.72;;;30.44;26.85
59971;BME280;45825;45.434;9.116;2023-02-19T13:47:57;100754.44;;;30.42;27.02
59971;BME280;45825;45.434;9.116;2023-02-19T13:50:27;100755.50;;;29.28;28.22
59971;BME280;45825;45.434;9.116;2023-02-19T13:55:57;100742.19;;;30.79;26.41
59971;BME280;45825;45.434;9.116;2023-02-19T14:01:05;100736.72;;;29.97;27.56
59971;BME280;45825;45.434;9.116;2023-02-19T14:06:04;100736.97;;;31.12;26.32
59971;BME280;45825;45.434;9.116;2023-02-19T14:08:52;100733.59;;;31.16;25.92
59971;BME280;45825;45.434;9.116;2023-02-19T14:16:55;100719.44;;;30.74;25.89
59971;BME280;45825;45.434;9.116;2023-02-19T14:30:27;100714.06;;;32.19;24.11
59971;BME280;45825;45.434;9.116;2023-02-19T14:32:53;100714.34;;;31.18;25.30
59971;BME280;45825;45.434;9.116;2023-02-19T14:35:19;100711.91;;;30.83;25.69
59971;BME280;45825;45.434;9.116;2023-02-19T14:37:46;100711.25;;;31.28;24.91
59971;BME280;45825;45.434;9.116;2023-02-19T14:40:19;100724.44;;;31.24;25.39
59971;BME280;45825;45.434;9.116;2023-02-19T14:42:46;100715.84;;;30.73;25.67
59971;BME280;45825;45.434;9.116;2023-02-19T14:45:13;100717.38;;;30.07;26.44
59971;BME280;45825;45.434;9.116;2023-02-19T14:47:40;100714.03;;;29.63;27.28
59971;BME280;45825;45.434;9.116;2023-02-19T14:50:12;100716.34;;;28.37;28.77
59971;BME280;45825;45.434;9.116;2023-02-19T14:52:42;100713.25;;;26.74;30.98
59971;BME280;45825;45.434;9.116;2023-02-19T14:55:31;100726.91;;;24.04;35.36
59971;BME280;45825;45.434;9.116;2023-02-19T14:58:02;100725.19;;;22.42;38.81